sim
Sign-in with your pilot id or email,
or register
Callsign
Passwort

Schedule Details

Flight Number: DLH820 (2)
Departure: Frankfurt Airport (EDDF) at 20:40
Arrival: Gothenburg Landvetter Airport (ESGG) at 22:20
Route: Lufthansa Passenger Schedule. Enter filed route here before submitting Pirep.

Weather Information
Getting current METAR information for EDDF 251250Z 20009KT 160V220 9999 FEW032 BKN041 16/08 Q1006 NOSIG
Getting current METAR information for ESGG 251250Z 20019KT 9000 -RA BKN008 11/10 Q0998

Schedule Frequency

Route Map